CCA1866 ZGGG-ZSPD
Flight info
| Callsign | CCA1866 |
|---|---|
| Flight time | N/A |
| Altitude | 37100 |
| Route | LMN9 LMN G471 XEBUL ODOPI AKAVO UPNUG W76 AREPI B221 SHZ W58 XSY |
| Aircraft | B77W/H-SDE1E2E3FGHIJ2J3J4J5M1RWXY/LB1D1 |
Departure
| Time | N/A |
|---|---|
| Airport | Guangzhou Baiyun International Airport (ZGGG) |
Arrival
| Time | 2026-05-07 07:14 |
|---|---|
| Airport | Shanghai Pudong International Airport (ZSPD) |
| Time | Latitude | Longitude | Altitude | Speed | Heading |
|---|---|---|---|---|---|
| 2026-05-07 06:15 | 25.81872 | 117.19875 | 37117 ft | 514 kts | 49° |
| 2026-05-07 06:15 | 25.83904 | 117.23115 | 37120 ft | 513 kts | 49° |
| 2026-05-07 06:16 | 25.88023 | 117.29688 | 37111 ft | 515 kts | 49° |
| 2026-05-07 06:16 | 25.92106 | 117.36214 | 37115 ft | 513 kts | 49° |
| 2026-05-07 06:17 | 25.96190 | 117.42748 | 37128 ft | 514 kts | 49° |
| 2026-05-07 06:17 | 26.00297 | 117.49330 | 37141 ft | 515 kts | 49° |
| 2026-05-07 06:18 | 26.04369 | 117.55866 | 37126 ft | 514 kts | 49° |
| 2026-05-07 06:18 | 26.08470 | 117.62456 | 37107 ft | 515 kts | 49° |
| 2026-05-07 06:19 | 26.12543 | 117.69012 | 37090 ft | 515 kts | 50° |
| 2026-05-07 06:19 | 26.16637 | 117.75612 | 37094 ft | 515 kts | 50° |
| 2026-05-07 06:20 | 26.20723 | 117.82204 | 37101 ft | 518 kts | 50° |
| 2026-05-07 06:20 | 26.24802 | 117.88799 | 37098 ft | 516 kts | 49° |
| 2026-05-07 06:21 | 26.28881 | 117.95403 | 37083 ft | 516 kts | 49° |
| 2026-05-07 06:21 | 26.32978 | 118.02044 | 37066 ft | 517 kts | 49° |
| 2026-05-07 06:22 | 26.37045 | 118.08647 | 37055 ft | 518 kts | 49° |
| 2026-05-07 06:22 | 26.43165 | 118.18601 | 37034 ft | 518 kts | 49° |
| 2026-05-07 06:23 | 26.47235 | 118.25233 | 37023 ft | 517 kts | 49° |
| 2026-05-07 06:23 | 26.51313 | 118.31886 | 37026 ft | 518 kts | 49° |
| 2026-05-07 06:24 | 26.55408 | 118.38577 | 37034 ft | 519 kts | 49° |
| 2026-05-07 06:24 | 26.59474 | 118.45233 | 37048 ft | 518 kts | 49° |
| 2026-05-07 06:25 | 26.63530 | 118.51881 | 37052 ft | 517 kts | 49° |
| 2026-05-07 06:25 | 26.67591 | 118.58546 | 37068 ft | 518 kts | 49° |
| 2026-05-07 06:26 | 26.71647 | 118.65213 | 37083 ft | 518 kts | 49° |
| 2026-05-07 06:26 | 26.75724 | 118.71925 | 37075 ft | 518 kts | 49° |
| 2026-05-07 06:27 | 26.79763 | 118.78585 | 37097 ft | 518 kts | 49° |
| 2026-05-07 06:27 | 26.83804 | 118.85255 | 37111 ft | 519 kts | 49° |
| 2026-05-07 06:28 | 26.87858 | 118.91962 | 37119 ft | 518 kts | 49° |
| 2026-05-07 06:28 | 26.91919 | 118.98686 | 37125 ft | 518 kts | 49° |
| 2026-05-07 06:29 | 26.95984 | 119.05427 | 37132 ft | 522 kts | 49° |
| 2026-05-07 06:29 | 27.00032 | 119.12152 | 37125 ft | 519 kts | 49° |
| 2026-05-07 06:30 | 27.04072 | 119.18874 | 37120 ft | 521 kts | 49° |
| 2026-05-07 06:30 | 27.08154 | 119.25676 | 37116 ft | 518 kts | 49° |
| 2026-05-07 06:31 | 27.12174 | 119.32382 | 37122 ft | 522 kts | 49° |
| 2026-05-07 06:31 | 27.16258 | 119.39208 | 37105 ft | 523 kts | 49° |
| 2026-05-07 06:32 | 27.20295 | 119.45966 | 37097 ft | 523 kts | 49° |
| 2026-05-07 06:32 | 27.24369 | 119.52795 | 37075 ft | 524 kts | 49° |
| 2026-05-07 06:33 | 27.28023 | 119.59938 | 37086 ft | 526 kts | 56° |
| 2026-05-07 06:33 | 27.31432 | 119.67320 | 37076 ft | 532 kts | 56° |
| 2026-05-07 06:34 | 27.34810 | 119.74665 | 37067 ft | 530 kts | 56° |
| 2026-05-07 06:34 | 27.38220 | 119.82093 | 37080 ft | 531 kts | 56° |
| 2026-05-07 06:35 | 27.41620 | 119.89514 | 37081 ft | 535 kts | 56° |
| 2026-05-07 06:35 | 27.45016 | 119.96943 | 37078 ft | 533 kts | 56° |
| 2026-05-07 06:36 | 27.48411 | 120.04382 | 37065 ft | 532 kts | 56° |
| 2026-05-07 06:36 | 27.51802 | 120.11824 | 37060 ft | 533 kts | 56° |
| 2026-05-07 06:37 | 27.55207 | 120.19312 | 37051 ft | 532 kts | 57° |
| 2026-05-07 06:37 | 27.58585 | 120.26753 | 37053 ft | 533 kts | 56° |
| 2026-05-07 06:38 | 27.62223 | 120.33965 | 37044 ft | 527 kts | 46° |
| 2026-05-07 06:38 | 27.67321 | 120.39844 | 37029 ft | 511 kts | 28° |
| 2026-05-07 06:39 | 27.73175 | 120.44227 | 37022 ft | 500 kts | 24° |
| 2026-05-07 06:39 | 27.79033 | 120.48445 | 37017 ft | 496 kts | 24° |
| 2026-05-07 06:40 | 27.84894 | 120.52671 | 37012 ft | 498 kts | 24° |
| 2026-05-07 06:40 | 27.90748 | 120.56902 | 37013 ft | 497 kts | 24° |
| 2026-05-07 06:41 | 27.96606 | 120.61143 | 37013 ft | 499 kts | 24° |
| 2026-05-07 06:41 | 28.02722 | 120.64734 | 37007 ft | 489 kts | 9° |
| 2026-05-07 06:42 | 28.09267 | 120.66175 | 37002 ft | 469 kts | 357° |
| 2026-05-07 06:42 | 28.15778 | 120.66841 | 37009 ft | 466 kts | 356° |
| 2026-05-07 06:43 | 28.22232 | 120.67482 | 37017 ft | 466 kts | 356° |
| 2026-05-07 06:43 | 28.28746 | 120.68126 | 37021 ft | 466 kts | 356° |
| 2026-05-07 06:44 | 28.35253 | 120.68769 | 37034 ft | 465 kts | 356° |
| 2026-05-07 06:44 | 28.41744 | 120.69407 | 37043 ft | 470 kts | 356° |
| 2026-05-07 06:45 | 28.48294 | 120.70059 | 37048 ft | 469 kts | 356° |
| 2026-05-07 06:45 | 28.54827 | 120.70718 | 37054 ft | 468 kts | 356° |
| 2026-05-07 06:46 | 28.61342 | 120.71375 | 37053 ft | 470 kts | 356° |
| 2026-05-07 06:46 | 28.67923 | 120.72039 | 37048 ft | 470 kts | 356° |
| 2026-05-07 06:47 | 28.74490 | 120.72736 | 37048 ft | 474 kts | 357° |
| 2026-05-07 06:47 | 28.81057 | 120.73462 | 37041 ft | 472 kts | 357° |
| 2026-05-07 06:48 | 28.87626 | 120.74182 | 37041 ft | 471 kts | 356° |
| 2026-05-07 06:48 | 28.94223 | 120.74859 | 37033 ft | 474 kts | 356° |
| 2026-05-07 06:49 | 29.00809 | 120.75536 | 37029 ft | 472 kts | 356° |
| 2026-05-07 06:49 | 29.07362 | 120.76210 | 37030 ft | 471 kts | 356° |
| 2026-05-07 06:50 | 29.13969 | 120.76890 | 37039 ft | 475 kts | 356° |
| 2026-05-07 06:50 | 29.20562 | 120.77570 | 37038 ft | 477 kts | 356° |
| 2026-05-07 06:51 | 29.27180 | 120.78256 | 37050 ft | 476 kts | 356° |
| 2026-05-07 06:51 | 29.33793 | 120.78941 | 37029 ft | 475 kts | 356° |
| 2026-05-07 06:52 | 29.40445 | 120.79631 | 37020 ft | 474 kts | 356° |
| 2026-05-07 06:52 | 29.47038 | 120.80314 | 36686 ft | 480 kts | 356° |
| 2026-05-07 06:53 | 29.50390 | 120.80688 | 35686 ft | 493 kts | 0° |
| 2026-05-07 06:53 | 29.53819 | 120.81539 | 34617 ft | 507 kts | 9° |
| 2026-05-07 06:53 | 29.57140 | 120.82969 | 33395 ft | 515 kts | 19° |
| 2026-05-07 06:53 | 29.60267 | 120.84964 | 32228 ft | 517 kts | 28° |
| 2026-05-07 06:54 | 29.63148 | 120.87521 | 31053 ft | 519 kts | 38° |
| 2026-05-07 06:54 | 29.65628 | 120.90505 | 29893 ft | 528 kts | 47° |
| 2026-05-07 06:54 | 29.67757 | 120.93958 | 28734 ft | 533 kts | 54° |
| 2026-05-07 06:54 | 29.69737 | 120.97516 | 27620 ft | 529 kts | 54° |
| 2026-05-07 06:55 | 29.71714 | 121.01073 | 26508 ft | 523 kts | 55° |
| 2026-05-07 06:55 | 29.73645 | 121.04552 | 25417 ft | 515 kts | 55° |
| 2026-05-07 06:55 | 29.75548 | 121.07984 | 24335 ft | 507 kts | 55° |
| 2026-05-07 06:55 | 29.77444 | 121.11406 | 23246 ft | 499 kts | 56° |
| 2026-05-07 06:56 | 29.79288 | 121.14736 | 22190 ft | 492 kts | 56° |
| 2026-05-07 06:56 | 29.81094 | 121.18001 | 21157 ft | 485 kts | 56° |
| 2026-05-07 06:56 | 29.82893 | 121.21255 | 20118 ft | 477 kts | 56° |
| 2026-05-07 06:56 | 29.84641 | 121.24419 | 19087 ft | 470 kts | 56° |
| 2026-05-07 06:57 | 29.86377 | 121.27565 | 18036 ft | 463 kts | 56° |
| 2026-05-07 06:57 | 29.88196 | 121.30575 | 17108 ft | 451 kts | 47° |
| 2026-05-07 06:57 | 29.90345 | 121.33094 | 16681 ft | 433 kts | 37° |
| 2026-05-07 06:57 | 29.92811 | 121.35115 | 16632 ft | 433 kts | 27° |
| 2026-05-07 06:58 | 29.95401 | 121.36848 | 16603 ft | 431 kts | 26° |
| 2026-05-07 06:58 | 29.98032 | 121.38556 | 16643 ft | 432 kts | 25° |
| 2026-05-07 06:58 | 30.00669 | 121.40249 | 16615 ft | 431 kts | 25° |
| 2026-05-07 06:58 | 30.03309 | 121.41932 | 16500 ft | 432 kts | 25° |
| 2026-05-07 06:59 | 30.05938 | 121.43600 | 16050 ft | 431 kts | 25° |
| 2026-05-07 06:59 | 30.08569 | 121.45264 | 15622 ft | 425 kts | 25° |
| 2026-05-07 06:59 | 30.11096 | 121.47008 | 15128 ft | 422 kts | 32° |
| 2026-05-07 06:59 | 30.13452 | 121.49028 | 14790 ft | 415 kts | 30° |
| 2026-05-07 07:00 | 30.16005 | 121.50650 | 14712 ft | 416 kts | 22° |
| 2026-05-07 07:00 | 30.18509 | 121.52048 | 14686 ft | 415 kts | 22° |
| 2026-05-07 07:00 | 30.21126 | 121.53498 | 14692 ft | 416 kts | 22° |
| 2026-05-07 07:00 | 30.23733 | 121.54945 | 14664 ft | 415 kts | 22° |
| 2026-05-07 07:01 | 30.26358 | 121.56422 | 14283 ft | 417 kts | 24° |
| 2026-05-07 07:01 | 30.28880 | 121.58041 | 13900 ft | 413 kts | 26° |
| 2026-05-07 07:01 | 30.31358 | 121.59667 | 13502 ft | 408 kts | 26° |
| 2026-05-07 07:01 | 30.33841 | 121.61293 | 13052 ft | 405 kts | 26° |
| 2026-05-07 07:02 | 30.36280 | 121.62885 | 12639 ft | 401 kts | 26° |
| 2026-05-07 07:02 | 30.38701 | 121.64520 | 12208 ft | 398 kts | 28° |
| 2026-05-07 07:02 | 30.41047 | 121.66183 | 11798 ft | 395 kts | 29° |
| 2026-05-07 07:02 | 30.43418 | 121.67865 | 11380 ft | 393 kts | 29° |
| 2026-05-07 07:03 | 30.45748 | 121.69514 | 10957 ft | 390 kts | 29° |
| 2026-05-07 07:03 | 30.48038 | 121.71133 | 10435 ft | 379 kts | 29° |
| 2026-05-07 07:03 | 30.50218 | 121.72674 | 10001 ft | 360 kts | 29° |
| 2026-05-07 07:03 | 30.52321 | 121.74160 | 9604 ft | 344 kts | 29° |
| 2026-05-07 07:04 | 30.54336 | 121.75582 | 9185 ft | 331 kts | 28° |
| 2026-05-07 07:04 | 30.56281 | 121.76952 | 8748 ft | 319 kts | 28° |
| 2026-05-07 07:04 | 30.58161 | 121.78273 | 8322 ft | 309 kts | 28° |
| 2026-05-07 07:04 | 30.59967 | 121.79539 | 7896 ft | 300 kts | 28° |
| 2026-05-07 07:05 | 30.61739 | 121.80776 | 7489 ft | 292 kts | 28° |
| 2026-05-07 07:05 | 30.63453 | 121.81969 | 7058 ft | 285 kts | 28° |
| 2026-05-07 07:05 | 30.65259 | 121.82903 | 6614 ft | 277 kts | 15° |
| 2026-05-07 07:05 | 30.67083 | 121.83540 | 6176 ft | 273 kts | 14° |
| 2026-05-07 07:06 | 30.68919 | 121.84145 | 5736 ft | 271 kts | 13° |
| 2026-05-07 07:06 | 30.70715 | 121.84732 | 5304 ft | 265 kts | 14° |
| 2026-05-07 07:06 | 30.72479 | 121.85313 | 4876 ft | 259 kts | 14° |
| 2026-05-07 07:06 | 30.74192 | 121.85876 | 4449 ft | 253 kts | 13° |
| 2026-05-07 07:07 | 30.75874 | 121.86421 | 4015 ft | 249 kts | 14° |
| 2026-05-07 07:07 | 30.77542 | 121.86953 | 3570 ft | 245 kts | 14° |
| 2026-05-07 07:07 | 30.79158 | 121.87464 | 3146 ft | 241 kts | 13° |
| 2026-05-07 07:07 | 30.80728 | 121.87953 | 3004 ft | 226 kts | 13° |
| 2026-05-07 07:08 | 30.82260 | 121.88223 | 2997 ft | 216 kts | 4° |
| 2026-05-07 07:08 | 30.83811 | 121.88383 | 2995 ft | 224 kts | 4° |
| 2026-05-07 07:08 | 30.85382 | 121.88538 | 2990 ft | 227 kts | 4° |
| 2026-05-07 07:08 | 30.86938 | 121.88689 | 2985 ft | 218 kts | 3° |
| 2026-05-07 07:09 | 30.88424 | 121.88836 | 2984 ft | 214 kts | 3° |
| 2026-05-07 07:09 | 30.89923 | 121.88986 | 2999 ft | 213 kts | 3° |
| 2026-05-07 07:09 | 30.91362 | 121.88789 | 2989 ft | 210 kts | 335° |
| 2026-05-07 07:09 | 30.92489 | 121.87722 | 2990 ft | 210 kts | 314° |
| 2026-05-07 07:10 | 30.93645 | 121.86675 | 2981 ft | 210 kts | 331° |
| 2026-05-07 07:10 | 30.94956 | 121.86011 | 2977 ft | 209 kts | 339° |
| 2026-05-07 07:10 | 30.96327 | 121.85475 | 2988 ft | 199 kts | 341° |
| 2026-05-07 07:10 | 30.97602 | 121.85013 | 2965 ft | 189 kts | 342° |
| 2026-05-07 07:11 | 30.98877 | 121.84551 | 2721 ft | 191 kts | 341° |
| 2026-05-07 07:11 | 31.00150 | 121.84080 | 2484 ft | 190 kts | 341° |
| 2026-05-07 07:11 | 31.01408 | 121.83611 | 2229 ft | 189 kts | 341° |
| 2026-05-07 07:11 | 31.02621 | 121.83159 | 1987 ft | 177 kts | 341° |
| 2026-05-07 07:12 | 31.03761 | 121.82734 | 1762 ft | 167 kts | 341° |
| 2026-05-07 07:12 | 31.04851 | 121.82324 | 1558 ft | 164 kts | 341° |
| 2026-05-07 07:12 | 31.05932 | 121.81918 | 1357 ft | 163 kts | 341° |
| 2026-05-07 07:12 | 31.06999 | 121.81519 | 1140 ft | 156 kts | 341° |
| 2026-05-07 07:13 | 31.08015 | 121.81139 | 952 ft | 151 kts | 340° |
| 2026-05-07 07:13 | 31.08998 | 121.80768 | 760 ft | 151 kts | 341° |
| 2026-05-07 07:13 | 31.10001 | 121.80391 | 565 ft | 152 kts | 340° |
| 2026-05-07 07:13 | 31.10997 | 121.80019 | 362 ft | 152 kts | 341° |
| 2026-05-07 07:14 | 31.12004 | 121.79647 | 206 ft | 152 kts | 341° |
| 2026-05-07 07:14 | 31.13027 | 121.79266 | 28 ft | 149 kts | 340° |
| 2026-05-07 07:14 | 31.13891 | 121.78938 | 27 ft | 115 kts | 343° |
| 2026-05-07 07:14 | 31.14341 | 121.78768 | 27 ft | 29 kts | 346° |
| 2026-05-07 07:15 | 31.14511 | 121.78744 | 27 ft | 23 kts | 4° |
| 2026-05-07 07:15 | 31.14639 | 121.78761 | 27 ft | 10 kts | 12° |
| 2026-05-07 07:15 | 31.14706 | 121.78785 | 27 ft | 8 kts | 36° |
| 2026-05-07 07:15 | 31.14734 | 121.78848 | 27 ft | 8 kts | 71° |
| 2026-05-07 07:16 | 31.14755 | 121.78912 | 27 ft | 8 kts | 72° |
| 2026-05-07 07:16 | 31.14766 | 121.78951 | 27 ft | 0 kts | 72° |
| 2026-05-07 07:16 | 31.14770 | 121.78966 | 27 ft | 7 kts | 72° |
| 2026-05-07 07:16 | 31.14798 | 121.79068 | 27 ft | 16 kts | 72° |
| 2026-05-07 07:17 | 31.14832 | 121.79192 | 27 ft | 15 kts | 72° |
| 2026-05-07 07:17 | 31.14828 | 121.79298 | 27 ft | 13 kts | 140° |
| 2026-05-07 07:17 | 31.14746 | 121.79340 | 27 ft | 12 kts | 161° |
| 2026-05-07 07:17 | 31.14661 | 121.79372 | 27 ft | 16 kts | 163° |
| 2026-05-07 07:18 | 31.14534 | 121.79423 | 27 ft | 19 kts | 163° |
| 2026-05-07 07:18 | 31.14407 | 121.79469 | 27 ft | 18 kts | 162° |
| 2026-05-07 07:18 | 31.14293 | 121.79517 | 27 ft | 16 kts | 157° |
| 2026-05-07 07:18 | 31.14186 | 121.79552 | 27 ft | 15 kts | 164° |
| 2026-05-07 07:19 | 31.14158 | 121.79562 | 27 ft | 2 kts | 162° |
| 2026-05-07 07:19 | 31.14129 | 121.79585 | 27 ft | 7 kts | 123° |
| 2026-05-07 07:19 | 31.14121 | 121.79656 | 27 ft | 9 kts | 90° |
| 2026-05-07 07:19 | 31.14134 | 121.79735 | 27 ft | 11 kts | 75° |
| 2026-05-07 07:20 | 31.14161 | 121.79837 | 27 ft | 15 kts | 72° |
| 2026-05-07 07:20 | 31.14197 | 121.79966 | 27 ft | 17 kts | 73° |
| 2026-05-07 07:20 | 31.14237 | 121.80111 | 27 ft | 19 kts | 72° |
| 2026-05-07 07:20 | 31.14278 | 121.80258 | 27 ft | 18 kts | 72° |
| 2026-05-07 07:21 | 31.14317 | 121.80397 | 27 ft | 17 kts | 72° |
| 2026-05-07 07:21 | 31.14354 | 121.80529 | 27 ft | 15 kts | 72° |
| 2026-05-07 07:21 | 31.14385 | 121.80637 | 27 ft | 12 kts | 71° |
| 2026-05-07 07:21 | 31.14409 | 121.80720 | 27 ft | 9 kts | 71° |
| 2026-05-07 07:22 | 31.14426 | 121.80777 | 27 ft | 6 kts | 71° |
| 2026-05-07 07:22 | 31.14440 | 121.80830 | 27 ft | 7 kts | 73° |
| 2026-05-07 07:22 | 31.14457 | 121.80894 | 27 ft | 8 kts | 72° |
| 2026-05-07 07:22 | 31.14477 | 121.80965 | 27 ft | 9 kts | 71° |
| 2026-05-07 07:23 | 31.14499 | 121.81044 | 27 ft | 10 kts | 73° |
| 2026-05-07 07:23 | 31.14519 | 121.81116 | 27 ft | 6 kts | 74° |
| 2026-05-07 07:23 | 31.14515 | 121.81148 | 27 ft | 1 kts | 120° |
| 2026-05-07 07:23 | 31.14508 | 121.81157 | 27 ft | 1 kts | 135° |
| 2026-05-07 07:24 | 31.14480 | 121.81175 | 27 ft | 8 kts | 161° |
| 2026-05-07 07:24 | 31.14417 | 121.81201 | 27 ft | 5 kts | 160° |
| 2026-05-07 07:24 | 31.14340 | 121.81231 | 27 ft | 15 kts | 162° |
| 2026-05-07 07:24 | 31.14251 | 121.81264 | 27 ft | 11 kts | 162° |
| 2026-05-07 07:25 | 31.14209 | 121.81280 | 27 ft | 1 kts | 167° |
| 2026-05-07 07:25 | 31.14203 | 121.81280 | 27 ft | 0 kts | 177° |
| 2026-05-07 07:25 | 31.14200 | 121.81280 | 27 ft | 0 kts | 188° |
| 2026-05-07 07:26 | 31.14194 | 121.81278 | 27 ft | 1 kts | 206° |
| 2026-05-07 07:26 | 31.14190 | 121.81273 | 27 ft | 0 kts | 227° |
| 2026-05-07 07:26 | 31.14184 | 121.81255 | 27 ft | 5 kts | 255° |
| 2026-05-07 07:26 | 31.14171 | 121.81200 | 27 ft | 2 kts | 253° |
| 2026-05-07 07:27 | 31.14169 | 121.81194 | 27 ft | 0 kts | 253° |